createdAt,value
2017-07-30T00:01:30.890Z,100871.75
2017-07-30T00:03:57.155Z,100866.12
2017-07-30T00:06:23.443Z,100863.35
2017-07-30T00:08:49.687Z,100857.04
2017-07-30T00:11:15.933Z,100854.16
2017-07-30T00:13:42.204Z,100856.81
2017-07-30T00:17:35.900Z,100857.44
2017-07-30T00:20:02.200Z,100848.80
2017-07-30T00:22:28.445Z,100848.59
2017-07-30T00:24:54.711Z,100842.17
2017-07-30T00:27:20.960Z,100843.22
2017-07-30T00:29:47.201Z,100840.58
2017-07-30T00:32:13.499Z,100832.81
2017-07-30T00:34:39.760Z,100822.44
2017-07-30T00:37:06.000Z,100825.84
2017-07-30T00:39:32.289Z,100829.77
2017-07-30T00:41:58.531Z,100821.22
2017-07-30T00:44:24.814Z,100815.80
2017-07-30T00:46:51.050Z,100810.55
2017-07-30T00:49:17.301Z,100810.23
2017-07-30T00:51:43.565Z,100809.77
2017-07-30T00:54:09.844Z,100805.47
2017-07-30T00:56:36.120Z,100797.75
2017-07-30T00:59:02.406Z,100790.05
2017-07-30T01:01:28.667Z,100787.33
2017-07-30T01:03:54.930Z,100789.72
2017-07-30T01:06:21.188Z,100780.41
2017-07-30T01:08:47.472Z,100787.23
2017-07-30T01:11:13.714Z,100785.19
2017-07-30T01:13:39.980Z,100778.47
2017-07-30T01:17:35.498Z,100766.67
2017-07-30T01:20:01.823Z,100761.02
2017-07-30T01:22:28.096Z,100766.41
2017-07-30T01:24:54.345Z,100759.72
2017-07-30T01:27:20.625Z,100749.13
2017-07-30T01:29:46.868Z,100746.05
2017-07-30T01:32:13.154Z,100736.61
2017-07-30T01:34:39.397Z,100724.92
2017-07-30T01:37:05.671Z,100716.45
2017-07-30T01:39:31.934Z,100716.88
2017-07-30T01:41:58.192Z,100711.36
2017-07-30T01:44:24.481Z,100722.84
2017-07-30T01:46:50.788Z,100719.23
2017-07-30T01:49:17.068Z,100706.00
2017-07-30T01:51:43.329Z,100705.80
2017-07-30T01:54:09.588Z,100694.57
2017-07-30T01:56:35.860Z,100681.98
2017-07-30T01:59:02.183Z,100668.91
2017-07-30T02:01:28.444Z,100668.38
2017-07-30T02:03:54.764Z,100666.81
2017-07-30T02:06:21.029Z,100663.02
2017-07-30T02:08:47.333Z,100659.84
2017-07-30T02:11:13.568Z,100651.64
2017-07-30T02:13:39.838Z,100650.31
2017-07-30T02:17:35.958Z,100643.56
2017-07-30T02:20:02.227Z,100645.38
2017-07-30T02:22:29.242Z,100637.88
2017-07-30T02:24:55.978Z,100646.61
2017-07-30T02:27:22.241Z,100647.97
2017-07-30T02:29:48.499Z,100641.19
2017-07-30T02:32:14.801Z,100643.53
2017-07-30T02:34:41.056Z,100636.45
2017-07-30T02:37:07.324Z,100647.97
2017-07-30T02:39:33.594Z,100641.25
2017-07-30T02:41:59.853Z,100640.59
2017-07-30T02:44:26.100Z,100630.72
2017-07-30T02:46:52.355Z,100617.24
2017-07-30T02:49:18.693Z,100619.64
2017-07-30T02:51:44.946Z,100625.80
2017-07-30T02:54:11.208Z,100625.75
2017-07-30T02:56:37.434Z,100626.62
2017-07-30T02:59:03.673Z,100628.53
2017-07-30T03:01:29.908Z,100630.78
2017-07-30T03:03:56.151Z,100623.19
2017-07-30T03:06:22.433Z,100626.07
2017-07-30T03:08:48.668Z,100622.98
2017-07-30T03:11:14.932Z,100619.48
2017-07-30T03:13:41.172Z,100625.77
2017-07-30T03:17:35.583Z,100616.19
2017-07-30T03:20:02.789Z,100618.39
2017-07-30T03:22:29.044Z,100626.80
2017-07-30T03:24:55.331Z,100622.11
2017-07-30T03:27:21.577Z,100620.67
2017-07-30T03:29:47.895Z,100616.09
2017-07-30T03:32:14.177Z,100616.68
2017-07-30T03:34:40.428Z,100625.32
2017-07-30T03:37:06.683Z,100622.00
2017-07-30T03:39:32.926Z,100615.94
2017-07-30T03:41:59.183Z,100607.42
2017-07-30T03:44:25.448Z,100604.55
2017-07-30T03:46:51.692Z,100607.27
2017-07-30T03:49:17.940Z,100608.64
2017-07-30T03:51:44.197Z,100610.91
2017-07-30T03:54:10.483Z,100609.11
2017-07-30T03:56:36.734Z,100610.34
2017-07-30T03:59:02.996Z,100600.92
2017-07-30T04:01:29.251Z,100606.09
2017-07-30T04:03:55.498Z,100600.57
2017-07-30T04:06:21.798Z,100601.16
2017-07-30T04:08:48.074Z,100607.27
2017-07-30T04:11:14.325Z,100600.14
2017-07-30T04:13:40.572Z,100587.33
2017-07-30T04:17:35.285Z,100598.50
2017-07-30T04:20:01.560Z,100598.20
2017-07-30T04:22:27.817Z,100599.90
2017-07-30T04:24:54.075Z,100604.62
2017-07-30T04:27:27.260Z,100592.97
2017-07-30T04:29:53.495Z,100603.14
2017-07-30T04:32:19.736Z,100596.48
2017-07-30T04:34:45.984Z,100595.10
2017-07-30T04:37:12.245Z,100596.72
2017-07-30T04:39:38.481Z,100599.73
2017-07-30T04:42:04.774Z,100594.46
2017-07-30T04:44:31.029Z,100597.01
2017-07-30T04:46:57.273Z,100595.39
2017-07-30T04:49:23.528Z,100593.92
2017-07-30T04:51:49.795Z,100591.20
2017-07-30T04:54:16.041Z,100596.04
2017-07-30T04:56:42.287Z,100592.52
2017-07-30T04:59:08.520Z,100601.74
2017-07-30T05:01:34.761Z,100596.44
2017-07-30T05:04:01.407Z,100597.95
2017-07-30T05:06:27.652Z,100594.76
2017-07-30T05:08:53.898Z,100596.94
2017-07-30T05:11:20.149Z,100593.44
2017-07-30T05:13:46.374Z,100592.38
2017-07-30T05:17:36.004Z,100592.44
2017-07-30T05:20:02.267Z,100595.09
2017-07-30T05:22:28.533Z,100602.78
2017-07-30T05:24:54.776Z,100598.06
2017-07-30T05:27:21.041Z,100600.92
2017-07-30T05:29:47.310Z,100591.81
2017-07-30T05:32:13.561Z,100603.05
2017-07-30T05:34:39.820Z,100603.77
2017-07-30T05:37:06.076Z,100604.14
2017-07-30T05:39:32.329Z,100607.80
2017-07-30T05:41:58.592Z,100614.91
2017-07-30T05:44:24.848Z,100613.63
2017-07-30T05:46:51.072Z,100621.41
2017-07-30T05:49:17.352Z,100615.03
2017-07-30T05:51:43.634Z,100613.83
2017-07-30T05:54:09.930Z,100616.84
2017-07-30T05:56:36.175Z,100619.62
2017-07-30T05:59:02.426Z,100616.70
2017-07-30T06:01:28.712Z,100622.29
2017-07-30T06:03:54.935Z,100613.20
2017-07-30T06:06:21.215Z,100613.17
2017-07-30T06:08:47.468Z,100612.21
2017-07-30T06:11:13.688Z,100615.50
2017-07-30T06:13:39.954Z,100616.04
2017-07-30T06:17:35.664Z,100614.46
2017-07-30T06:20:01.932Z,100619.11
2017-07-30T06:22:28.182Z,100611.09
2017-07-30T06:24:54.428Z,100610.70
2017-07-30T06:27:20.680Z,100613.98
2017-07-30T06:29:46.942Z,100611.44
2017-07-30T06:32:13.525Z,100620.36
2017-07-30T06:34:39.773Z,100618.47
2017-07-30T06:37:06.041Z,100621.95
2017-07-30T06:39:32.280Z,100618.39
2017-07-30T06:41:58.570Z,100617.02
2017-07-30T06:44:24.818Z,100612.78
2017-07-30T06:46:51.069Z,100623.66
2017-07-30T06:49:17.330Z,100620.00
2017-07-30T06:51:43.598Z,100619.41
2017-07-30T06:54:09.901Z,100624.48
2017-07-30T06:56:36.158Z,100623.92
2017-07-30T06:59:02.409Z,100613.22
2017-07-30T07:01:28.652Z,100628.83
2017-07-30T07:03:54.909Z,100626.38
2017-07-30T07:06:21.176Z,100628.61
2017-07-30T07:08:47.444Z,100631.70
2017-07-30T07:11:13.749Z,100631.91
2017-07-30T07:13:40.012Z,100632.94
2017-07-30T07:17:36.725Z,100637.83
2017-07-30T07:20:03.019Z,100638.58
2017-07-30T07:22:29.292Z,100638.05
2017-07-30T07:24:55.544Z,100636.55
2017-07-30T07:27:21.819Z,100624.28
2017-07-30T07:29:48.072Z,100631.91
2017-07-30T07:32:14.349Z,100627.98
2017-07-30T07:34:40.605Z,100631.77
2017-07-30T07:37:06.884Z,100632.33
2017-07-30T07:39:33.696Z,100645.08
2017-07-30T07:41:59.977Z,100630.95
2017-07-30T07:44:26.269Z,100640.37
2017-07-30T07:46:52.536Z,100649.53
2017-07-30T07:49:18.775Z,100635.39
2017-07-30T07:51:45.053Z,100632.83
2017-07-30T07:54:11.293Z,100638.29
2017-07-30T07:56:37.563Z,100639.91
2017-07-30T07:59:03.792Z,100647.46
2017-07-30T08:01:30.033Z,100638.63
2017-07-30T08:03:56.297Z,100644.49
2017-07-30T08:06:22.559Z,100643.61
2017-07-30T08:08:48.817Z,100640.08
2017-07-30T08:11:15.065Z,100636.77
2017-07-30T08:13:41.291Z,100634.47
2017-07-30T08:17:35.580Z,100632.52
2017-07-30T08:20:02.640Z,100640.69
2017-07-30T08:22:29.657Z,100647.71
2017-07-30T08:24:55.920Z,100662.59
2017-07-30T08:27:22.184Z,100652.75
2017-07-30T08:29:48.496Z,100648.56
2017-07-30T08:32:14.762Z,100656.67
2017-07-30T08:34:41.026Z,100651.33
2017-07-30T08:37:07.307Z,100660.64
2017-07-30T08:39:33.550Z,100657.16
2017-07-30T08:41:59.814Z,100664.95
2017-07-30T08:44:26.094Z,100664.61
2017-07-30T08:46:52.345Z,100661.12
2017-07-30T08:49:18.586Z,100655.19
2017-07-30T08:51:44.830Z,100652.67
2017-07-30T08:54:11.087Z,100651.42
2017-07-30T08:56:37.365Z,100664.97
2017-07-30T08:59:03.595Z,100660.58
2017-07-30T09:01:29.851Z,100651.16
2017-07-30T09:03:56.089Z,100656.34
2017-07-30T09:06:22.328Z,100662.27
2017-07-30T09:08:48.576Z,100655.45
2017-07-30T09:11:14.814Z,100660.03
2017-07-30T09:13:41.053Z,100663.03
2017-07-30T09:17:35.943Z,100664.27
2017-07-30T09:20:02.252Z,100677.52
2017-07-30T09:22:28.520Z,100700.12
2017-07-30T09:24:54.768Z,100717.70
2017-07-30T09:27:21.046Z,100723.25
2017-07-30T09:29:47.304Z,100722.25
2017-07-30T09:32:13.594Z,100723.16
2017-07-30T09:34:39.895Z,100715.39
2017-07-30T09:37:06.176Z,100720.87
2017-07-30T09:39:32.420Z,100726.61
2017-07-30T09:41:58.674Z,100733.39
2017-07-30T09:44:24.961Z,100733.69
2017-07-30T09:46:51.220Z,100726.78
2017-07-30T09:49:17.477Z,100730.22
2017-07-30T09:51:43.757Z,100736.03
2017-07-30T09:54:10.126Z,100736.95
2017-07-30T09:56:36.454Z,100728.73
2017-07-30T09:59:02.738Z,100724.60
2017-07-30T10:01:28.986Z,100723.28
2017-07-30T10:03:55.241Z,100732.84
2017-07-30T10:06:21.522Z,100726.74
2017-07-30T10:08:47.785Z,100731.17
2017-07-30T10:11:14.196Z,100735.31
2017-07-30T10:13:40.468Z,100744.39
2017-07-30T10:17:36.865Z,100795.13
2017-07-30T10:20:03.158Z,100798.16
2017-07-30T10:22:29.409Z,100799.52
2017-07-30T10:24:55.692Z,100809.87
2017-07-30T10:27:21.980Z,100809.87
2017-07-30T10:29:48.240Z,100816.66
2017-07-30T10:32:14.491Z,100822.34
2017-07-30T10:34:40.713Z,100822.50
2017-07-30T10:37:07.168Z,100817.36
2017-07-30T10:39:33.467Z,100819.05
2017-07-30T10:41:59.692Z,100813.23
2017-07-30T10:44:25.976Z,100811.16
2017-07-30T10:46:52.279Z,100810.63
2017-07-30T10:49:18.507Z,100814.47
2017-07-30T10:51:44.756Z,100805.30
2017-07-30T10:54:11.004Z,100823.70
2017-07-30T10:56:37.239Z,100811.47
2017-07-30T10:59:03.489Z,100816.34
2017-07-30T11:01:29.746Z,100810.16
2017-07-30T11:03:55.969Z,100812.71
2017-07-30T11:06:22.221Z,100819.95
2017-07-30T11:08:48.488Z,100824.27
2017-07-30T11:11:15.008Z,100819.25
2017-07-30T11:13:41.272Z,100815.47
2017-07-30T11:17:35.636Z,100825.20
2017-07-30T11:20:02.271Z,100826.42
2017-07-30T11:22:28.516Z,100827.34
2017-07-30T11:24:54.771Z,100821.75
2017-07-30T11:27:21.205Z,100825.78
2017-07-30T11:29:48.241Z,100817.42
2017-07-30T11:32:14.504Z,100833.11
2017-07-30T11:34:40.755Z,100819.83
2017-07-30T11:37:07.000Z,100837.17
2017-07-30T11:39:33.240Z,100837.34
2017-07-30T11:41:59.476Z,100840.25
2017-07-30T11:44:25.703Z,100863.28
2017-07-30T11:46:51.969Z,100876.22
2017-07-30T11:49:18.197Z,100892.61
2017-07-30T11:51:44.432Z,100889.67
2017-07-30T11:54:10.677Z,100888.44
2017-07-30T11:56:36.917Z,100902.50
2017-07-30T11:59:03.185Z,100904.47
2017-07-30T12:01:29.427Z,100897.23
2017-07-30T12:03:55.647Z,100917.77
2017-07-30T12:06:21.896Z,100902.38
2017-07-30T12:08:48.138Z,100903.55
2017-07-30T12:11:14.403Z,100909.81
2017-07-30T12:13:40.632Z,100915.15
2017-07-30T12:17:35.988Z,100921.58
2017-07-30T12:20:02.249Z,100931.95
2017-07-30T12:22:28.624Z,100925.96
2017-07-30T12:24:54.865Z,100928.13
2017-07-30T12:27:21.134Z,100944.41
2017-07-30T12:29:47.368Z,100929.84
2017-07-30T12:32:13.630Z,100939.44
2017-07-30T12:34:39.894Z,100931.83
2017-07-30T12:37:06.122Z,100948.84
2017-07-30T12:39:32.384Z,100970.43
2017-07-30T12:41:58.638Z,100967.76
2017-07-30T12:44:55.400Z,100964.59
2017-07-30T12:47:21.729Z,100990.66
2017-07-30T12:49:48.026Z,100979.61
2017-07-30T12:52:14.282Z,100978.05
2017-07-30T12:54:40.514Z,100987.13
2017-07-30T12:57:06.779Z,100994.72
2017-07-30T12:59:33.398Z,100987.14
2017-07-30T13:01:59.643Z,100993.94
2017-07-30T13:04:25.925Z,100989.11
2017-07-30T13:06:52.181Z,100986.91
2017-07-30T13:09:18.772Z,100990.25
2017-07-30T13:11:45.221Z,100995.78
2017-07-30T13:14:11.515Z,101009.41
2017-07-30T13:17:36.716Z,101005.89
2017-07-30T13:20:02.988Z,101009.81
2017-07-30T13:22:30.199Z,101021.50
2017-07-30T13:24:57.640Z,101019.45
2017-07-30T13:27:23.956Z,101016.91
2017-07-30T13:29:50.192Z,101015.25
2017-07-30T13:32:16.484Z,101026.09
2017-07-30T13:34:42.730Z,101025.09
2017-07-30T13:37:08.975Z,101032.66
2017-07-30T13:39:35.236Z,101041.10
2017-07-30T13:42:01.477Z,101036.90
2017-07-30T13:44:27.749Z,101036.84
2017-07-30T13:46:54.003Z,101054.22
2017-07-30T13:49:20.311Z,101055.16
2017-07-30T13:51:46.564Z,101052.29
2017-07-30T13:54:12.837Z,101060.22
2017-07-30T13:56:39.103Z,101060.22
2017-07-30T13:59:05.377Z,101060.30
2017-07-30T14:01:31.682Z,101065.52
2017-07-30T14:03:57.925Z,101074.33
2017-07-30T14:06:24.193Z,101080.59
2017-07-30T14:08:50.510Z,101075.69
2017-07-30T14:11:16.793Z,101078.36
2017-07-30T14:13:43.062Z,101077.56
2017-07-30T14:17:42.565Z,101090.08
2017-07-30T14:20:08.860Z,101086.06
2017-07-30T14:22:35.116Z,101098.44
2017-07-30T14:25:01.477Z,101109.28
2017-07-30T14:27:27.732Z,101110.80
2017-07-30T14:29:55.795Z,101105.55
2017-07-30T14:32:22.109Z,101116.14
2017-07-30T14:34:48.381Z,101107.45
2017-07-30T14:37:14.620Z,101118.58
2017-07-30T14:39:40.930Z,101111.13
2017-07-30T14:42:07.211Z,101109.20
2017-07-30T14:44:33.525Z,101118.47
2017-07-30T14:46:59.861Z,101127.54
2017-07-30T14:49:26.805Z,101131.34
2017-07-30T14:51:53.084Z,101125.70
2017-07-30T14:54:20.371Z,101134.06
2017-07-30T14:56:47.737Z,101126.36
2017-07-30T14:59:14.933Z,101127.16
2017-07-30T15:01:42.381Z,101128.16
2017-07-30T15:04:08.724Z,101123.22
2017-07-30T15:06:35.723Z,101127.67
2017-07-30T15:09:02.492Z,101133.05
2017-07-30T15:11:28.867Z,101126.97
2017-07-30T15:13:55.144Z,101131.97
2017-07-30T15:17:36.279Z,101139.52
2017-07-30T15:20:02.808Z,101140.62
2017-07-30T15:22:29.060Z,101141.31
2017-07-30T15:24:56.126Z,101130.17
2017-07-30T15:27:22.380Z,101143.36
2017-07-30T15:29:48.636Z,101144.28
2017-07-30T15:32:14.948Z,101141.92
2017-07-30T15:34:41.214Z,101145.95
2017-07-30T15:37:07.502Z,101151.65
2017-07-30T15:39:33.836Z,101138.97
2017-07-30T15:42:00.153Z,101149.88
2017-07-30T15:44:26.410Z,101146.86
2017-07-30T15:46:52.864Z,101153.31
2017-07-30T15:49:20.156Z,101151.52
2017-07-30T15:51:46.443Z,101150.23
2017-07-30T15:54:12.824Z,101154.82
2017-07-30T15:56:39.123Z,101149.38
2017-07-30T15:59:05.434Z,101145.64
2017-07-30T16:01:31.717Z,101141.20
2017-07-30T16:03:58.015Z,101134.80
2017-07-30T16:06:24.262Z,101143.38
2017-07-30T16:08:50.529Z,101137.12
2017-07-30T16:11:16.945Z,101139.44
2017-07-30T16:13:43.216Z,101147.30
2017-07-30T16:17:36.664Z,101143.17
2017-07-30T16:20:02.929Z,101142.66
2017-07-30T16:22:29.267Z,101151.86
2017-07-30T16:24:55.567Z,101144.62
2017-07-30T16:27:21.842Z,101142.39
2017-07-30T16:29:48.093Z,101143.25
2017-07-30T16:32:14.415Z,101141.80
2017-07-30T16:34:40.917Z,101141.20
2017-07-30T16:37:07.188Z,101127.99
2017-07-30T16:39:33.467Z,101130.83
2017-07-30T16:41:59.708Z,101130.99
2017-07-30T16:44:25.964Z,101132.24
2017-07-30T16:46:52.219Z,101129.23
2017-07-30T16:49:18.513Z,101135.55
2017-07-30T16:51:44.851Z,101131.75
2017-07-30T16:54:11.136Z,101124.67
2017-07-30T16:56:37.404Z,101136.89
2017-07-30T16:59:03.726Z,101135.16
2017-07-30T17:01:30.072Z,101144.47
2017-07-30T17:03:56.320Z,101145.34
2017-07-30T17:06:22.579Z,101137.19
2017-07-30T17:08:48.886Z,101128.25
2017-07-30T17:11:15.152Z,101129.31
2017-07-30T17:13:41.394Z,101132.98
2017-07-30T17:17:35.734Z,101133.62
2017-07-30T17:20:02.313Z,101134.36
2017-07-30T17:22:28.569Z,101138.11
2017-07-30T17:24:54.888Z,101135.57
2017-07-30T17:27:21.127Z,101129.98
2017-07-30T17:29:47.370Z,101133.23
2017-07-30T17:32:13.632Z,101146.13
2017-07-30T17:34:39.902Z,101142.80
2017-07-30T17:37:06.169Z,101149.92
2017-07-30T17:39:32.440Z,101148.97
2017-07-30T17:41:58.725Z,101144.94
2017-07-30T17:44:24.977Z,101150.69
2017-07-30T17:46:51.248Z,101150.43
2017-07-30T17:49:17.516Z,101151.14
2017-07-30T17:51:43.777Z,101162.14
2017-07-30T17:54:10.056Z,101164.38
2017-07-30T17:56:36.334Z,101161.91
2017-07-30T17:59:02.623Z,101175.45
2017-07-30T18:01:28.893Z,101166.80
2017-07-30T18:03:55.201Z,101167.20
2017-07-30T18:06:21.498Z,101160.72
2017-07-30T18:08:47.782Z,101168.29
2017-07-30T18:11:14.062Z,101173.30
2017-07-30T18:13:40.322Z,101163.88
2017-07-30T18:17:36.037Z,101165.02
2017-07-30T18:20:02.338Z,101178.41
2017-07-30T18:22:28.608Z,101167.69
2017-07-30T18:24:54.936Z,101180.23
2017-07-30T18:27:21.211Z,101177.41
2017-07-30T18:29:47.508Z,101179.13
2017-07-30T18:32:13.797Z,101180.64
2017-07-30T18:34:40.060Z,101192.44
2017-07-30T18:37:06.326Z,101193.05
2017-07-30T18:39:32.645Z,101202.81
2017-07-30T18:41:58.911Z,101209.72
2017-07-30T18:44:25.208Z,101208.60
2017-07-30T18:46:51.488Z,101208.94
2017-07-30T18:49:17.745Z,101211.88
2017-07-30T18:51:44.012Z,101220.78
2017-07-30T18:54:10.313Z,101220.00
2017-07-30T18:56:36.568Z,101223.75
2017-07-30T18:59:02.852Z,101217.69
2017-07-30T19:01:29.176Z,101227.48
2017-07-30T19:03:55.473Z,101227.72
2017-07-30T19:06:21.782Z,101229.93
2017-07-30T19:08:48.068Z,101237.52
2017-07-30T19:11:14.328Z,101235.77
2017-07-30T19:13:40.608Z,101241.27
2017-07-30T19:17:35.991Z,101248.07
2017-07-30T19:20:02.277Z,101235.95
2017-07-30T19:22:28.547Z,101238.23
2017-07-30T19:24:54.832Z,101241.70
2017-07-30T19:27:21.115Z,101252.53
2017-07-30T19:29:47.405Z,101253.49
2017-07-30T19:32:13.668Z,101256.05
2017-07-30T19:34:39.969Z,101259.50
2017-07-30T19:37:06.269Z,101255.05
2017-07-30T19:39:32.576Z,101256.84
2017-07-30T19:41:58.852Z,101265.75
2017-07-30T19:44:25.113Z,101267.28
2017-07-30T19:46:51.429Z,101270.94
2017-07-30T19:49:17.691Z,101270.03
2017-07-30T19:51:43.936Z,101279.01
2017-07-30T19:54:10.226Z,101286.91
2017-07-30T19:56:36.471Z,101285.66
2017-07-30T19:59:02.717Z,101278.78
2017-07-30T20:01:29.028Z,101282.93
2017-07-30T20:03:55.291Z,101282.50
2017-07-30T20:06:21.568Z,101291.09
2017-07-30T20:08:47.878Z,101284.65
2017-07-30T20:11:14.135Z,101287.64
2017-07-30T20:13:40.457Z,101283.06
2017-07-30T20:17:35.636Z,101284.05
2017-07-30T20:20:01.941Z,101290.79
2017-07-30T20:22:28.208Z,101292.27
2017-07-30T20:24:54.520Z,101286.80
2017-07-30T20:27:20.820Z,101291.95
2017-07-30T20:29:47.077Z,101297.60
2017-07-30T20:32:13.392Z,101298.73
2017-07-30T20:34:39.676Z,101295.25
2017-07-30T20:37:05.954Z,101293.23
2017-07-30T20:39:32.263Z,101296.32
2017-07-30T20:41:58.564Z,101297.17
2017-07-30T20:44:24.809Z,101295.80
2017-07-30T20:46:51.159Z,101301.18
2017-07-30T20:49:17.407Z,101298.84
2017-07-30T20:51:43.696Z,101309.03
2017-07-30T20:54:09.993Z,101316.64
2017-07-30T20:56:36.241Z,101309.27
2017-07-30T20:59:02.493Z,101315.32
2017-07-30T21:01:28.779Z,101317.49
2017-07-30T21:03:55.016Z,101318.32
2017-07-30T21:06:21.258Z,101320.67
2017-07-30T21:08:47.529Z,101313.30
2017-07-30T21:11:13.792Z,101313.17
2017-07-30T21:13:40.055Z,101309.14
2017-07-30T21:17:35.292Z,101320.02
2017-07-30T21:20:02.322Z,101324.59
2017-07-30T21:22:29.343Z,101317.97
2017-07-30T21:24:55.621Z,101309.27
2017-07-30T21:27:21.863Z,101324.17
2017-07-30T21:29:48.180Z,101327.19
2017-07-30T21:32:14.473Z,101325.92
2017-07-30T21:34:40.768Z,101323.77
2017-07-30T21:37:07.040Z,101321.56
2017-07-30T21:39:33.307Z,101323.51
2017-07-30T21:41:59.571Z,101339.11
2017-07-30T21:44:25.796Z,101335.61
2017-07-30T21:46:52.056Z,101344.56
2017-07-30T21:49:18.321Z,101351.23
2017-07-30T21:51:44.568Z,101337.35
2017-07-30T21:54:10.841Z,101345.09
2017-07-30T21:56:37.078Z,101349.87
2017-07-30T21:59:03.300Z,101346.72
2017-07-30T22:01:29.573Z,101339.28
2017-07-30T22:03:55.804Z,101348.27
2017-07-30T22:06:22.057Z,101348.67
2017-07-30T22:08:48.334Z,101347.42
2017-07-30T22:11:14.582Z,101347.97
2017-07-30T22:13:40.819Z,101356.98
2017-07-30T22:17:35.949Z,101360.71
2017-07-30T22:20:02.201Z,101362.52
2017-07-30T22:22:28.432Z,101364.52
2017-07-30T22:24:54.692Z,101359.91
2017-07-30T22:27:20.934Z,101367.94
2017-07-30T22:29:47.221Z,101367.67
2017-07-30T22:32:13.488Z,101358.72
2017-07-30T22:34:39.735Z,101360.72
2017-07-30T22:37:05.979Z,101365.73
2017-07-30T22:39:32.238Z,101365.65
2017-07-30T22:41:58.480Z,101366.17
2017-07-30T22:44:24.708Z,101369.19
2017-07-30T22:46:50.966Z,101368.44
2017-07-30T22:49:17.216Z,101368.33
2017-07-30T22:51:43.481Z,101375.83
2017-07-30T22:54:09.756Z,101376.06
2017-07-30T22:56:35.993Z,101366.70
2017-07-30T22:59:02.240Z,101366.89
2017-07-30T23:01:28.508Z,101366.77
2017-07-30T23:03:54.754Z,101367.88
2017-07-30T23:06:20.996Z,101363.65
2017-07-30T23:08:47.272Z,101360.77
2017-07-30T23:11:13.527Z,101365.41
2017-07-30T23:13:39.775Z,101357.25
2017-07-30T23:17:35.149Z,101368.55
2017-07-30T23:20:02.155Z,101364.69
2017-07-30T23:22:28.392Z,101360.44
2017-07-30T23:24:54.652Z,101358.69
2017-07-30T23:27:20.888Z,101356.70
2017-07-30T23:29:47.121Z,101360.25
2017-07-30T23:32:13.392Z,101353.26
2017-07-30T23:34:39.631Z,101354.31
2017-07-30T23:37:05.881Z,101356.82
2017-07-30T23:39:32.178Z,101347.06
2017-07-30T23:41:58.439Z,101346.19
2017-07-30T23:44:24.687Z,101357.08
2017-07-30T23:46:50.957Z,101353.72
2017-07-30T23:49:17.187Z,101351.75
2017-07-30T23:51:43.432Z,101347.25
2017-07-30T23:54:09.700Z,101351.45
2017-07-30T23:56:35.944Z,101348.62
2017-07-30T23:59:02.189Z,101350.45
